Medea, Algeria
Current Conditions -  °F | °C
As of 2:30 AM on Friday 28 Nov 2014 (Local Time) from DAAG Reporting Station
Clear Clear  
Wind Chill: 66°   Ceiling: Unl
Heat Index: 66°   Visibility: 6mi
Dew Point: 46°   Wind: 15mph
Humidity: 49%   Direction: 160°SSE
Pressure: 29.53"   Gusts: NA
Location:  36.26°N, 2.75°E
Report Text: DAAG 280130Z 16013KT CAVOK 19/08 Q1000
Loading
Personal Weather Stations






























Interactive Weather Map New forecast layout! Learn more

10-Day Weather Forecast

Advertisements
Track Severe Weather on mobile